createdAt,value
2023-02-12T00:01:55.788Z,59.65
2023-02-12T00:04:25.023Z,63.65
2023-02-12T00:06:53.876Z,59.22
2023-02-12T00:09:22.957Z,50.90
2023-02-12T00:11:52.427Z,51.75
2023-02-12T00:14:21.749Z,45.42
2023-02-12T00:16:51.076Z,46.13
2023-02-12T00:19:20.417Z,45.97
2023-02-12T00:21:49.476Z,43.80
2023-02-12T00:24:18.559Z,41.05
2023-02-12T00:26:49.302Z,41.35
2023-02-12T00:29:18.877Z,43.45
2023-02-12T00:31:48.049Z,43.08
2023-02-12T00:34:17.858Z,43.10
2023-02-12T00:36:47.123Z,47.80
2023-02-12T00:39:16.145Z,49.13
2023-02-12T00:41:45.245Z,49.72
2023-02-12T00:44:40.652Z,48.58
2023-02-12T00:47:12.687Z,45.63
2023-02-12T00:49:42.015Z,45.33
2023-02-12T00:52:10.914Z,44.70
2023-02-12T00:54:40.134Z,44.58
2023-02-12T00:57:09.295Z,42.70
2023-02-12T01:00:22.274Z,43.47
2023-02-12T01:02:52.771Z,42.08
2023-02-12T01:05:22.529Z,42.30
2023-02-12T01:07:56.028Z,42.67
2023-02-12T01:10:27.737Z,47.83
2023-02-12T01:12:58.808Z,46.67
2023-02-12T01:15:29.031Z,45.95
2023-02-12T01:18:03.720Z,44.38
2023-02-12T01:20:33.363Z,49.17
2023-02-12T01:23:02.909Z,49.22
2023-02-12T01:25:32.546Z,50.78
2023-02-12T01:28:01.744Z,53.00
2023-02-12T01:30:31.374Z,57.35
2023-02-12T01:33:01.695Z,57.50
2023-02-12T01:35:31.140Z,55.97
2023-02-12T01:38:02.844Z,56.13
2023-02-12T01:40:32.540Z,49.85
2023-02-12T01:43:05.766Z,47.70
2023-02-12T01:45:38.381Z,44.47
2023-02-12T01:48:08.705Z,48.28
2023-02-12T01:50:38.335Z,44.88
2023-02-12T01:53:07.881Z,41.95
2023-02-12T01:55:37.084Z,41.10
2023-02-12T01:58:08.712Z,40.65
2023-02-12T02:00:38.292Z,41.55
2023-02-12T02:03:07.631Z,38.85
2023-02-12T02:05:52.040Z,39.97
2023-02-12T02:08:21.613Z,37.60
2023-02-12T02:14:56.227Z,37.58
2023-02-12T02:17:44.058Z,36.65
2023-02-12T02:20:37.284Z,36.85
2023-02-12T02:23:24.722Z,37.40
2023-02-12T02:26:33.667Z,38.90
2023-02-12T02:29:31.923Z,40.67
2023-02-12T02:36:27.944Z,44.70
2023-02-12T02:39:15.294Z,48.20
2023-02-12T02:41:44.895Z,51.80
2023-02-12T02:44:25.419Z,53.65
2023-02-12T02:46:55.858Z,43.40
2023-02-12T02:49:30.803Z,50.65
2023-02-12T02:52:09.245Z,50.15
2023-02-12T02:54:53.099Z,55.58
2023-02-12T02:57:28.792Z,54.33
2023-02-12T03:00:23.710Z,53.83
2023-02-12T03:03:00.833Z,46.97
2023-02-12T03:05:46.928Z,42.28
2023-02-12T03:08:25.042Z,38.42
2023-02-12T03:10:59.193Z,41.42
2023-02-12T03:13:44.556Z,42.35
2023-02-12T03:16:21.136Z,33.75
2023-02-12T03:19:02.892Z,35.83
2023-02-12T03:21:42.691Z,33.15
2023-02-12T03:24:14.818Z,35.17
2023-02-12T03:26:55.964Z,36.10
2023-02-12T03:29:25.568Z,34.83
2023-02-12T03:32:41.354Z,32.63
2023-02-12T03:35:22.416Z,26.33
2023-02-12T03:38:18.377Z,30.60
2023-02-12T03:41:15.115Z,28.02
2023-02-12T03:44:40.026Z,27.73
2023-02-12T03:47:45.532Z,30.60
2023-02-12T03:50:25.265Z,27.20
2023-02-12T03:52:55.014Z,27.33
2023-02-12T03:55:24.454Z,30.20
2023-02-12T03:58:01.847Z,28.55
2023-02-12T04:04:32.588Z,27.52
2023-02-12T04:07:03.497Z,27.70
2023-02-12T04:09:34.812Z,27.10
2023-02-12T04:12:13.572Z,25.50
2023-02-12T04:14:51.632Z,26.55
2023-02-12T04:17:31.695Z,26.65
2023-02-12T04:20:24.151Z,25.20
2023-02-12T04:23:06.022Z,28.40
2023-02-12T04:25:59.268Z,22.80
2023-02-12T04:28:45.546Z,22.80
2023-02-12T04:31:41.859Z,21.23
2023-02-12T04:34:45.538Z,19.45
2023-02-12T04:37:27.658Z,19.83
2023-02-12T04:39:59.897Z,19.23
2023-02-12T04:42:29.699Z,20.20
2023-02-12T04:44:59.459Z,16.38
2023-02-12T04:47:29.544Z,15.90
2023-02-12T04:49:59.119Z,13.85
2023-02-12T04:52:28.899Z,12.98
2023-02-12T04:54:58.440Z,12.32
2023-02-12T04:57:28.281Z,17.50
2023-02-12T04:59:57.934Z,13.73
2023-02-12T05:02:33.711Z,13.95
2023-02-12T05:06:07.860Z,12.30
2023-02-12T05:08:37.524Z,13.27
2023-02-12T05:11:08.926Z,15.18
2023-02-12T05:13:38.805Z,14.40
2023-02-12T05:16:10.152Z,16.13
2023-02-12T05:18:39.589Z,14.25
2023-02-12T05:21:08.568Z,16.77
2023-02-12T05:23:39.358Z,14.77
2023-02-12T05:26:20.397Z,12.25
2023-02-12T05:28:49.912Z,20.50
2023-02-12T05:31:23.225Z,14.23
2023-02-12T05:33:52.766Z,11.55
2023-02-12T05:36:24.757Z,13.45
2023-02-12T05:38:54.950Z,10.65
2023-02-12T05:41:25.596Z,11.05
2023-02-12T05:43:55.832Z,11.27
2023-02-12T05:46:26.445Z,9.77
2023-02-12T05:48:56.031Z,9.57
2023-02-12T05:51:27.210Z,9.38
2023-02-12T05:54:05.545Z,10.95
2023-02-12T05:56:37.559Z,11.30
2023-02-12T05:59:15.516Z,9.07
2023-02-12T06:01:47.263Z,10.63
2023-02-12T06:04:25.971Z,7.50
2023-02-12T06:06:56.784Z,10.75
2023-02-12T06:09:26.305Z,9.77
2023-02-12T06:11:55.401Z,9.00
2023-02-12T06:14:24.805Z,11.25
2023-02-12T06:16:54.264Z,9.32
2023-02-12T06:19:25.398Z,9.00
2023-02-12T06:21:54.952Z,9.05
2023-02-12T06:24:26.965Z,10.00
2023-02-12T06:26:56.184Z,12.38
2023-02-12T06:29:26.057Z,10.05
2023-02-12T06:31:55.341Z,11.18
2023-02-12T06:34:24.718Z,10.95
2023-02-12T06:36:53.692Z,10.50
2023-02-12T06:39:23.023Z,12.18
2023-02-12T06:41:52.212Z,11.63
2023-02-12T06:44:21.792Z,15.23
2023-02-12T06:46:51.095Z,10.18
2023-02-12T06:49:20.234Z,10.50
2023-02-12T06:51:49.271Z,11.00
2023-02-12T06:54:19.702Z,10.27
2023-02-12T06:56:48.878Z,11.45
2023-02-12T06:59:18.711Z,9.13
2023-02-12T07:01:48.051Z,10.02
2023-02-12T07:04:17.332Z,11.02
2023-02-12T07:06:46.404Z,9.75
2023-02-12T07:09:15.470Z,8.45
2023-02-12T07:11:44.495Z,10.75
2023-02-12T07:14:18.494Z,9.07
2023-02-12T07:16:47.738Z,8.20
2023-02-12T07:19:17.512Z,9.35
2023-02-12T07:21:46.854Z,8.10
2023-02-12T07:24:19.196Z,10.57
2023-02-12T07:29:17.970Z,8.80
2023-02-12T07:31:47.257Z,7.70
2023-02-12T07:34:16.587Z,8.60
2023-02-12T07:36:45.982Z,8.75
2023-02-12T07:39:14.996Z,9.52
2023-02-12T07:41:44.384Z,7.50
2023-02-12T07:44:14.433Z,7.25
2023-02-12T07:46:48.953Z,6.53
2023-02-12T07:49:23.188Z,7.32
2023-02-12T07:51:52.652Z,5.05
2023-02-12T07:54:21.752Z,6.13
2023-02-12T07:56:52.856Z,5.07
2023-02-12T07:59:22.335Z,6.78
2023-02-12T08:01:53.601Z,5.80
2023-02-12T08:04:26.050Z,5.18
2023-02-12T08:06:57.116Z,6.20
2023-02-12T08:09:29.200Z,7.30
2023-02-12T08:11:59.055Z,5.60
2023-02-12T08:14:28.897Z,6.50
2023-02-12T08:16:57.924Z,5.82
2023-02-12T08:19:27.082Z,5.40
2023-02-12T08:21:57.915Z,6.03
2023-02-12T08:24:27.375Z,5.18
2023-02-12T08:26:56.933Z,5.65
2023-02-12T08:29:29.531Z,5.82
2023-02-12T08:32:01.336Z,6.40
2023-02-12T08:34:36.675Z,4.50
2023-02-12T08:37:07.794Z,4.05
2023-02-12T08:39:36.876Z,14.82
2023-02-12T08:42:06.835Z,8.68
2023-02-12T08:44:36.379Z,6.35
2023-02-12T08:47:07.251Z,4.13
2023-02-12T08:49:37.991Z,4.93
2023-02-12T08:52:07.554Z,5.05
2023-02-12T08:54:37.243Z,3.85
2023-02-12T08:57:06.233Z,7.47
2023-02-12T08:59:35.232Z,5.57
2023-02-12T09:02:09.604Z,5.38
2023-02-12T09:04:38.965Z,4.65
2023-02-12T09:07:10.729Z,6.80
2023-02-12T09:09:40.601Z,4.50
2023-02-12T09:12:09.659Z,5.07
2023-02-12T09:14:39.367Z,4.47
2023-02-12T09:17:08.365Z,7.28
2023-02-12T09:19:37.846Z,6.22
2023-02-12T09:22:07.121Z,5.10
2023-02-12T09:24:36.334Z,4.70
2023-02-12T09:27:05.625Z,3.72
2023-02-12T09:29:34.590Z,5.50
2023-02-12T09:32:06.521Z,5.82
2023-02-12T09:34:39.093Z,3.38
2023-02-12T09:37:08.406Z,3.45
2023-02-12T09:39:37.341Z,4.70
2023-02-12T09:42:37.475Z,3.83
2023-02-12T09:45:33.955Z,4.80
2023-02-12T09:48:23.364Z,5.20
2023-02-12T09:51:04.621Z,6.47
2023-02-12T09:53:36.517Z,4.85
2023-02-12T09:56:12.955Z,6.50
2023-02-12T09:58:53.026Z,4.40
2023-02-12T10:01:23.750Z,4.13
2023-02-12T10:03:54.285Z,4.45
2023-02-12T10:06:31.775Z,4.85
2023-02-12T10:09:19.540Z,6.25
2023-02-12T10:12:18.786Z,10.68
2023-02-12T10:14:53.739Z,4.05
2023-02-12T10:17:34.964Z,4.78
2023-02-12T10:20:42.148Z,3.47
2023-02-12T10:23:29.184Z,3.75
2023-02-12T10:26:14.032Z,3.95
2023-02-12T10:28:44.423Z,4.70
2023-02-12T10:31:30.045Z,3.90
2023-02-12T10:33:59.949Z,5.50
2023-02-12T10:36:43.673Z,4.35
2023-02-12T10:39:17.059Z,4.10
2023-02-12T10:42:02.367Z,4.93
2023-02-12T10:44:32.537Z,4.40
2023-02-12T10:47:02.494Z,3.58
2023-02-12T10:49:34.038Z,6.68
2023-02-12T10:52:13.903Z,4.75
2023-02-12T10:54:46.791Z,4.43
2023-02-12T10:57:26.480Z,7.72
2023-02-12T11:00:15.354Z,4.93
2023-02-12T11:03:02.779Z,3.67
2023-02-12T11:05:34.878Z,4.40
2023-02-12T11:08:06.414Z,3.60
2023-02-12T11:10:41.334Z,2.97
2023-02-12T11:13:29.212Z,5.15
2023-02-12T11:15:58.756Z,4.85
2023-02-12T11:18:37.592Z,4.82
2023-02-12T11:21:12.845Z,4.13
2023-02-12T11:23:46.265Z,7.43
2023-02-12T11:26:21.745Z,6.03
2023-02-12T11:29:18.316Z,6.22
2023-02-12T11:32:03.728Z,5.65
2023-02-12T11:34:33.124Z,5.20
2023-02-12T11:37:03.340Z,3.75
2023-02-12T11:39:40.001Z,4.95
2023-02-12T11:42:24.333Z,4.55
2023-02-12T11:44:58.729Z,6.13
2023-02-12T11:47:31.567Z,4.20
2023-02-12T11:50:27.526Z,5.50
2023-02-12T11:53:07.821Z,8.35
2023-02-12T11:55:41.080Z,6.38
2023-02-12T11:58:18.891Z,7.00
2023-02-12T12:00:55.345Z,8.98
2023-02-12T12:03:27.428Z,6.63
2023-02-12T12:06:04.284Z,4.93
2023-02-12T12:08:49.738Z,4.95
2023-02-12T12:11:26.272Z,5.70
2023-02-12T12:14:05.915Z,5.43
2023-02-12T12:17:15.215Z,6.70
2023-02-12T12:19:59.529Z,7.93
2023-02-12T12:22:48.217Z,8.70
2023-02-12T12:25:36.344Z,8.00
2023-02-12T12:28:32.292Z,7.55
2023-02-12T12:31:07.491Z,5.30
2023-02-12T12:33:59.940Z,6.45
2023-02-12T12:36:59.134Z,5.60
2023-02-12T12:39:34.342Z,8.23
2023-02-12T12:42:27.918Z,7.60
2023-02-12T12:45:13.557Z,7.35
2023-02-12T12:48:04.331Z,13.15
2023-02-12T12:50:57.310Z,11.90
2023-02-12T12:53:53.914Z,13.30
2023-02-12T12:56:40.417Z,10.00
2023-02-12T12:59:43.871Z,10.27
2023-02-12T13:02:34.835Z,8.05
2023-02-12T13:05:22.050Z,10.38
2023-02-12T13:08:12.720Z,13.77
2023-02-12T13:10:54.853Z,9.48
2023-02-12T13:13:41.054Z,11.45
2023-02-12T13:16:16.039Z,13.95
2023-02-12T13:19:02.911Z,11.30
2023-02-12T13:22:00.737Z,12.68
2023-02-12T13:24:35.916Z,13.82
2023-02-12T13:27:22.032Z,14.43
2023-02-12T13:30:00.242Z,13.18
2023-02-12T13:32:44.131Z,13.80
2023-02-12T13:35:30.830Z,16.10
2023-02-12T13:38:01.821Z,18.38
2023-02-12T13:40:32.773Z,17.13
2023-02-12T13:43:34.700Z,19.73
2023-02-12T13:46:13.450Z,17.45
2023-02-12T13:49:16.624Z,17.15
2023-02-12T13:51:55.149Z,17.95
2023-02-12T13:55:21.203Z,21.83
2023-02-12T13:58:35.917Z,22.02
2023-02-12T14:01:34.740Z,24.38
2023-02-12T14:04:21.144Z,25.60
2023-02-12T14:07:13.874Z,28.23
2023-02-12T14:09:52.179Z,27.17
2023-02-12T14:12:27.505Z,28.95
2023-02-12T14:15:06.944Z,24.95
2023-02-12T14:17:36.372Z,22.73
2023-02-12T14:20:12.716Z,26.67
2023-02-12T14:22:45.001Z,45.58
2023-02-12T14:25:26.088Z,34.72
2023-02-12T14:28:07.450Z,29.58
2023-02-12T14:30:40.221Z,34.85
2023-02-12T14:33:09.490Z,29.08
2023-02-12T14:35:45.975Z,27.65
2023-02-12T14:38:21.425Z,26.65
2023-02-12T14:40:52.262Z,24.83
2023-02-12T14:43:33.561Z,22.70
2023-02-12T14:46:24.877Z,26.15
2023-02-12T14:49:06.892Z,23.33
2023-02-12T14:51:52.734Z,25.90
2023-02-12T14:54:51.275Z,27.55
2023-02-12T14:57:35.025Z,28.50
2023-02-12T15:00:19.614Z,31.23
2023-02-12T15:02:52.283Z,31.92
2023-02-12T15:05:45.125Z,28.55
2023-02-12T15:08:21.877Z,25.83
2023-02-12T15:10:56.712Z,21.40
2023-02-12T15:13:49.306Z,21.45
2023-02-12T15:16:27.175Z,22.27
2023-02-12T15:19:15.799Z,20.40
2023-02-12T15:21:47.040Z,20.88
2023-02-12T15:24:24.704Z,21.83
2023-02-12T15:27:03.035Z,22.92
2023-02-12T15:29:42.549Z,21.80
2023-02-12T15:32:20.747Z,23.55
2023-02-12T15:34:51.686Z,23.70
2023-02-12T15:37:28.483Z,23.23
2023-02-12T15:40:01.677Z,22.65
2023-02-12T15:42:35.276Z,21.75
2023-02-12T15:45:16.382Z,21.75
2023-02-12T15:47:47.631Z,19.38
2023-02-12T15:50:19.187Z,20.27
2023-02-12T15:52:51.197Z,18.70
2023-02-12T15:55:23.831Z,19.55
2023-02-12T15:57:56.039Z,18.02
2023-02-12T16:00:42.387Z,22.10
2023-02-12T16:03:32.312Z,16.98
2023-02-12T16:06:15.015Z,17.95
2023-02-12T16:11:21.668Z,18.38
2023-02-12T16:13:58.255Z,20.25
2023-02-12T16:16:55.812Z,22.05
2023-02-12T16:19:38.056Z,21.35
2023-02-12T16:22:09.778Z,29.58
2023-02-12T16:24:48.571Z,35.50
2023-02-12T16:27:22.395Z,37.28
2023-02-12T16:29:59.405Z,37.00
2023-02-12T16:32:35.117Z,44.15
2023-02-12T16:35:13.307Z,45.55
2023-02-12T16:37:53.237Z,49.42
2023-02-12T16:40:27.276Z,49.85
2023-02-12T16:42:56.405Z,63.58
2023-02-12T16:45:35.663Z,75.72
2023-02-12T16:48:13.774Z,87.72
2023-02-12T16:50:56.283Z,80.57
2023-02-12T16:53:32.855Z,82.10
2023-02-12T16:56:04.021Z,78.80
2023-02-12T16:58:33.874Z,70.70
2023-02-12T17:01:05.967Z,49.67
2023-02-12T17:03:37.223Z,45.33
2023-02-12T17:06:06.800Z,45.30
2023-02-12T17:08:36.048Z,52.53
2023-02-12T17:11:05.806Z,50.63
2023-02-12T17:13:34.818Z,53.70
2023-02-12T17:16:04.716Z,45.33
2023-02-12T17:18:34.142Z,42.50
2023-02-12T17:21:28.056Z,47.75
2023-02-12T17:23:57.795Z,47.25
2023-02-12T17:26:26.913Z,48.20
2023-02-12T17:28:56.206Z,50.35
2023-02-12T17:31:25.840Z,52.42
2023-02-12T17:33:55.000Z,59.67
2023-02-12T17:36:25.530Z,33.97
2023-02-12T17:38:54.900Z,23.63
2023-02-12T17:41:25.484Z,19.40
2023-02-12T17:43:54.688Z,16.45
2023-02-12T17:46:26.985Z,15.98
2023-02-12T17:51:26.034Z,13.90
2023-02-12T17:53:55.212Z,12.95
2023-02-12T17:56:26.683Z,13.55
2023-02-12T17:58:55.648Z,11.88
2023-02-12T18:01:25.837Z,14.38
2023-02-12T18:03:56.616Z,16.55
2023-02-12T18:06:28.930Z,22.55
2023-02-12T18:09:00.371Z,48.25
2023-02-12T18:11:30.737Z,60.63
2023-02-12T18:14:01.394Z,64.00
2023-02-12T18:16:32.609Z,62.60
2023-02-12T18:19:05.484Z,56.97
2023-02-12T18:21:35.968Z,51.38
2023-02-12T18:24:05.751Z,52.88
2023-02-12T18:26:34.895Z,53.97
2023-02-12T18:29:04.300Z,53.70
2023-02-12T18:31:34.114Z,56.88
2023-02-12T18:34:05.082Z,52.70
2023-02-12T18:36:34.892Z,50.47
2023-02-12T18:39:04.061Z,52.85
2023-02-12T18:41:36.768Z,60.42
2023-02-12T18:44:06.634Z,54.33
2023-02-12T18:46:35.527Z,55.42
2023-02-12T18:49:06.692Z,40.25
2023-02-12T18:51:39.337Z,48.33
2023-02-12T18:56:44.623Z,59.58
2023-02-12T19:01:45.339Z,24.02
2023-02-12T19:04:17.062Z,24.77
2023-02-12T19:06:49.792Z,23.07
2023-02-12T19:11:53.033Z,21.50
2023-02-12T19:14:24.631Z,24.40
2023-02-12T19:16:54.275Z,25.75
2023-02-12T19:19:23.867Z,23.15
2023-02-12T19:21:53.347Z,25.27
2023-02-12T19:24:22.978Z,25.02
2023-02-12T19:26:54.374Z,24.33
2023-02-12T19:29:23.755Z,25.63
2023-02-12T19:31:52.879Z,26.15
2023-02-12T19:34:24.164Z,27.08
2023-02-12T19:36:53.540Z,24.40
2023-02-12T19:39:25.746Z,23.30
2023-02-12T19:41:57.055Z,23.20
2023-02-12T19:44:27.335Z,21.25
2023-02-12T19:46:57.893Z,23.42
2023-02-12T19:49:29.770Z,24.20
2023-02-12T19:51:59.183Z,22.58
2023-02-12T19:54:28.681Z,26.15
2023-02-12T19:56:58.505Z,26.95
2023-02-12T19:59:28.107Z,26.45
2023-02-12T20:01:57.507Z,24.98
2023-02-12T20:04:27.089Z,24.95
2023-02-12T20:06:56.806Z,22.98
2023-02-12T20:09:26.369Z,17.83
2023-02-12T20:11:56.265Z,19.33
2023-02-12T20:14:25.385Z,20.27
2023-02-12T20:16:57.132Z,22.33
2023-02-12T20:19:32.276Z,22.33
2023-02-12T20:22:02.584Z,21.90
2023-02-12T20:24:34.496Z,20.65
2023-02-12T20:27:04.508Z,17.50
2023-02-12T20:29:33.937Z,19.50
2023-02-12T20:32:03.548Z,19.25
2023-02-12T20:34:42.496Z,19.45
2023-02-12T20:37:19.273Z,20.90
2023-02-12T20:39:49.190Z,21.10
2023-02-12T20:42:17.992Z,21.38
2023-02-12T20:44:47.371Z,23.15
2023-02-12T20:47:16.849Z,25.52
2023-02-12T20:49:47.028Z,23.73
2023-02-12T20:52:16.106Z,23.27
2023-02-12T20:54:47.745Z,21.75
2023-02-12T20:57:18.143Z,19.10
2023-02-12T20:59:47.277Z,21.73
2023-02-12T21:02:17.670Z,20.20
2023-02-12T21:04:46.874Z,18.35
2023-02-12T21:07:16.370Z,17.58
2023-02-12T21:09:46.009Z,19.20
2023-02-12T21:12:15.047Z,21.15
2023-02-12T21:14:44.457Z,21.15
2023-02-12T21:17:13.422Z,20.52
2023-02-12T21:19:42.793Z,22.58
2023-02-12T21:22:11.735Z,22.20
2023-02-12T21:24:41.040Z,22.33
2023-02-12T21:27:10.307Z,19.55
2023-02-12T21:29:39.923Z,20.45
2023-02-12T21:32:09.142Z,18.25
2023-02-12T21:34:38.966Z,17.45
2023-02-12T21:37:08.383Z,15.82
2023-02-12T21:39:38.029Z,17.20
2023-02-12T21:42:06.834Z,20.25
2023-02-12T21:44:36.513Z,17.42
2023-02-12T21:47:06.656Z,19.35
2023-02-12T21:49:36.134Z,17.45
2023-02-12T21:52:07.651Z,19.20
2023-02-12T21:54:36.793Z,19.58
2023-02-12T21:57:05.905Z,17.25
2023-02-12T21:59:35.046Z,18.67
2023-02-12T22:02:04.044Z,17.20
2023-02-12T22:04:33.287Z,18.05
2023-02-12T22:07:04.306Z,18.05
2023-02-12T22:09:34.589Z,16.00
2023-02-12T22:12:03.610Z,18.85
2023-02-12T22:14:33.295Z,23.33
2023-02-12T22:17:02.389Z,24.38
2023-02-12T22:19:32.094Z,25.88
2023-02-12T22:22:01.291Z,24.40
2023-02-12T22:24:30.702Z,22.48
2023-02-12T22:26:59.701Z,20.65
2023-02-12T22:29:29.137Z,19.30
2023-02-12T22:31:58.008Z,19.90
2023-02-12T22:34:27.131Z,19.63
2023-02-12T22:36:56.416Z,20.38
2023-02-12T22:39:25.647Z,21.45
2023-02-12T22:41:54.817Z,26.17
2023-02-12T22:44:24.320Z,30.83
2023-02-12T22:46:53.523Z,34.05
2023-02-12T22:49:23.080Z,38.92
2023-02-12T22:51:52.208Z,41.25
2023-02-12T22:54:21.837Z,41.80
2023-02-12T22:56:54.364Z,40.35
2023-02-12T22:59:24.030Z,41.60
2023-02-12T23:01:53.171Z,37.97
2023-02-12T23:04:22.712Z,34.13
2023-02-12T23:06:51.797Z,39.60
2023-02-12T23:09:21.140Z,25.83
2023-02-12T23:11:50.576Z,23.92
2023-02-12T23:14:20.257Z,25.17
2023-02-12T23:16:50.047Z,23.10
2023-02-12T23:19:19.779Z,25.27
2023-02-12T23:21:48.884Z,23.25
2023-02-12T23:24:18.417Z,22.98
2023-02-12T23:26:47.573Z,23.85
2023-02-12T23:29:16.886Z,17.80
2023-02-12T23:31:46.122Z,19.75
2023-02-12T23:34:15.885Z,20.15
2023-02-12T23:36:44.713Z,21.05
2023-02-12T23:39:14.449Z,20.63
2023-02-12T23:41:43.528Z,19.85
2023-02-12T23:44:13.053Z,20.00
2023-02-12T23:46:42.321Z,18.80
2023-02-12T23:49:11.855Z,15.48
2023-02-12T23:51:40.813Z,14.30
2023-02-12T23:54:10.400Z,16.48
2023-02-12T23:56:39.437Z,15.85
2023-02-12T23:59:09.263Z,13.38
